createdAt,value
2018-06-27T00:01:33.066Z,70.50
2018-06-27T00:06:30.546Z,70.50
2018-06-27T00:13:56.499Z,70.60
2018-06-27T00:21:22.413Z,69.80
2018-06-27T00:23:51.344Z,69.30
2018-06-27T00:28:48.765Z,69.30
2018-06-27T00:31:17.681Z,69.30
2018-06-27T00:33:46.706Z,69.50
2018-06-27T00:38:44.100Z,69.40
2018-06-27T00:41:13.049Z,69.60
2018-06-27T00:48:38.977Z,69.50
2018-06-27T00:51:07.996Z,69.90
2018-06-27T00:53:41.988Z,69.80
2018-06-27T00:56:10.942Z,70.10
2018-06-27T00:58:39.921Z,70.20
2018-06-27T01:01:08.899Z,70.00
2018-06-27T01:03:37.841Z,70.30
2018-06-27T01:06:06.841Z,70.00
2018-06-27T01:08:35.789Z,69.80
2018-06-27T01:11:04.855Z,69.90
2018-06-27T01:13:34.610Z,70.10
2018-06-27T01:16:03.544Z,70.70
2018-06-27T01:18:32.550Z,70.80
2018-06-27T01:21:01.504Z,71.00
2018-06-27T01:23:30.488Z,71.00
2018-06-27T01:25:59.373Z,71.00
2018-06-27T01:28:28.290Z,70.90
2018-06-27T01:30:57.942Z,70.90
2018-06-27T01:33:26.869Z,71.10
2018-06-27T01:35:55.792Z,71.10
2018-06-27T01:38:24.789Z,71.50
2018-06-27T01:43:22.280Z,72.30
2018-06-27T01:45:51.215Z,72.00
2018-06-27T01:48:20.098Z,72.60
2018-06-27T01:50:49.026Z,72.70
2018-06-27T01:53:18.004Z,72.70
2018-06-27T01:55:46.942Z,73.00
2018-06-27T02:00:44.344Z,73.00
2018-06-27T02:03:13.287Z,73.20
2018-06-27T02:08:10.754Z,73.40
2018-06-27T02:13:09.417Z,73.60
2018-06-27T02:15:38.435Z,73.80
2018-06-27T02:18:07.413Z,73.30
2018-06-27T02:20:36.383Z,73.10
2018-06-27T02:23:13.796Z,72.70
2018-06-27T02:25:42.743Z,72.40
2018-06-27T02:28:11.824Z,72.00
2018-06-27T02:30:40.861Z,72.00
2018-06-27T02:33:09.896Z,70.80
2018-06-27T02:35:38.800Z,70.90
2018-06-27T02:38:07.750Z,70.90
2018-06-27T02:40:36.764Z,71.60
2018-06-27T02:45:34.329Z,73.80
2018-06-27T02:48:03.241Z,73.20
2018-06-27T02:50:32.214Z,73.20
2018-06-27T02:53:01.162Z,74.10
2018-06-27T02:55:30.121Z,73.70
2018-06-27T02:57:59.010Z,73.30
2018-06-27T03:00:28.019Z,73.20
2018-06-27T03:02:56.927Z,72.60
2018-06-27T03:05:25.854Z,72.60
2018-06-27T03:07:54.809Z,74.20
2018-06-27T03:10:23.819Z,73.80
2018-06-27T03:12:52.762Z,74.10
2018-06-27T03:15:24.823Z,74.40
2018-06-27T03:17:53.795Z,74.70
2018-06-27T03:20:22.841Z,75.70
2018-06-27T03:22:51.732Z,75.20
2018-06-27T03:25:20.708Z,75.60
2018-06-27T03:27:49.660Z,75.40
2018-06-27T03:30:18.613Z,74.70
2018-06-27T03:32:47.589Z,75.90
2018-06-27T03:35:16.568Z,74.60
2018-06-27T03:37:45.492Z,73.80
2018-06-27T03:40:14.392Z,73.80
2018-06-27T03:42:43.372Z,73.70
2018-06-27T03:45:12.284Z,74.00
2018-06-27T03:47:41.272Z,73.70
2018-06-27T03:52:45.733Z,74.50
2018-06-27T03:57:43.596Z,75.00
2018-06-27T04:00:12.555Z,75.20
2018-06-27T04:02:41.543Z,75.50
2018-06-27T04:05:10.485Z,75.60
2018-06-27T04:07:39.396Z,75.90
2018-06-27T04:10:09.406Z,75.90
2018-06-27T04:15:07.204Z,75.60
2018-06-27T04:17:36.164Z,76.00
2018-06-27T04:20:05.180Z,76.00
2018-06-27T04:22:35.079Z,75.30
2018-06-27T04:27:33.254Z,76.10
2018-06-27T04:30:03.496Z,76.10
2018-06-27T04:35:01.215Z,76.00
2018-06-27T04:37:30.158Z,76.10
2018-06-27T04:39:59.130Z,75.70
2018-06-27T04:42:28.085Z,75.90
2018-06-27T04:44:57.069Z,76.50
2018-06-27T04:47:26.037Z,76.80
2018-06-27T04:49:54.975Z,77.80
2018-06-27T04:52:23.907Z,77.60
2018-06-27T04:57:21.380Z,77.40
2018-06-27T04:59:50.331Z,77.20
2018-06-27T05:02:19.284Z,77.10
2018-06-27T05:04:48.211Z,77.00
2018-06-27T05:07:17.293Z,77.40
2018-06-27T05:09:46.235Z,77.90
2018-06-27T05:14:43.698Z,77.80
2018-06-27T05:17:12.665Z,77.70
2018-06-27T05:19:43.755Z,76.80
2018-06-27T05:22:13.596Z,76.40
2018-06-27T05:24:42.951Z,76.00
2018-06-27T05:29:40.348Z,76.80
2018-06-27T05:32:09.265Z,77.80
2018-06-27T05:34:38.151Z,77.40
2018-06-27T05:37:07.133Z,77.20
2018-06-27T05:39:36.084Z,77.50
2018-06-27T05:42:05.042Z,77.60
2018-06-27T05:44:34.051Z,77.60
2018-06-27T05:47:02.990Z,77.50
2018-06-27T05:49:31.889Z,76.30
2018-06-27T05:52:00.863Z,76.50
2018-06-27T05:54:29.769Z,76.90
2018-06-27T05:56:58.709Z,78.50
2018-06-27T05:59:27.662Z,78.80
2018-06-27T06:01:56.607Z,78.60
2018-06-27T06:06:54.043Z,77.60
2018-06-27T06:11:51.524Z,77.20
2018-06-27T06:14:20.457Z,76.90
2018-06-27T06:16:49.464Z,77.00
2018-06-27T06:19:18.404Z,78.60
2018-06-27T06:21:47.389Z,78.60
2018-06-27T06:24:16.284Z,79.10
2018-06-27T06:26:45.197Z,78.40
2018-06-27T06:29:14.106Z,79.60
2018-06-27T06:31:43.052Z,79.50
2018-06-27T06:34:12.034Z,77.50
2018-06-27T06:36:40.967Z,79.30
2018-06-27T06:41:39.008Z,78.20
2018-06-27T06:44:07.979Z,78.00
2018-06-27T06:46:36.949Z,76.50
2018-06-27T06:49:05.899Z,76.80
2018-06-27T06:51:34.877Z,77.10
2018-06-27T06:54:03.786Z,77.30
2018-06-27T06:56:32.725Z,77.10
2018-06-27T06:59:01.695Z,76.60
2018-06-27T07:03:59.159Z,75.80
2018-06-27T07:06:28.101Z,75.40
2018-06-27T07:08:56.989Z,76.10
2018-06-27T07:11:25.944Z,77.00
2018-06-27T07:13:54.899Z,77.30
2018-06-27T07:16:23.879Z,75.70
2018-06-27T07:18:52.862Z,75.60
2018-06-27T07:21:21.815Z,74.70
2018-06-27T07:26:19.236Z,74.70
2018-06-27T07:28:48.226Z,74.40
2018-06-27T07:31:17.113Z,74.60
2018-06-27T07:33:46.040Z,75.20
2018-06-27T07:36:15.051Z,74.60
2018-06-27T07:38:44.075Z,74.20
2018-06-27T07:41:13.024Z,74.00
2018-06-27T07:46:10.714Z,74.40
2018-06-27T07:48:39.645Z,75.60
2018-06-27T07:51:08.604Z,73.50
2018-06-27T07:53:37.543Z,73.70
2018-06-27T07:56:06.878Z,72.90
2018-06-27T07:58:35.832Z,73.10
2018-06-27T08:01:04.820Z,73.40
2018-06-27T08:03:33.758Z,73.20
2018-06-27T08:08:31.212Z,72.30
2018-06-27T08:11:00.137Z,71.70
2018-06-27T08:13:29.089Z,72.20
2018-06-27T08:15:58.048Z,72.00
2018-06-27T08:18:26.941Z,71.80
2018-06-27T08:20:55.910Z,71.70
2018-06-27T08:23:24.852Z,72.40
2018-06-27T08:25:53.779Z,71.60
2018-06-27T08:28:23.796Z,73.40
2018-06-27T08:30:52.837Z,72.40
2018-06-27T08:33:21.857Z,72.40
2018-06-27T08:35:50.908Z,72.60
2018-06-27T08:38:19.849Z,72.90
2018-06-27T08:43:17.408Z,71.30
2018-06-27T08:45:46.342Z,71.00
2018-06-27T08:48:15.281Z,68.20
2018-06-27T08:50:44.229Z,67.20
2018-06-27T08:53:13.185Z,66.60
2018-06-27T08:58:10.648Z,65.40
2018-06-27T09:00:39.618Z,65.80
2018-06-27T09:03:08.555Z,66.60
2018-06-27T09:05:37.544Z,66.90
2018-06-27T09:08:06.528Z,66.70
2018-06-27T09:13:04.131Z,66.10
2018-06-27T09:15:33.120Z,66.40
2018-06-27T09:18:02.062Z,65.20
2018-06-27T09:20:31.166Z,66.10
2018-06-27T09:23:00.096Z,66.00
2018-06-27T09:25:29.066Z,65.80
2018-06-27T09:30:26.489Z,65.30
2018-06-27T09:32:55.403Z,67.00
2018-06-27T09:35:24.336Z,66.50
2018-06-27T09:37:53.289Z,66.50
2018-06-27T09:40:22.329Z,65.80
2018-06-27T09:42:51.269Z,65.60
2018-06-27T09:45:26.896Z,65.10
2018-06-27T09:48:10.547Z,64.80
2018-06-27T09:50:48.944Z,63.90
2018-06-27T09:53:27.169Z,64.60
2018-06-27T09:55:56.887Z,65.70
2018-06-27T09:58:26.612Z,64.90
2018-06-27T10:00:55.594Z,65.10
2018-06-27T10:03:24.656Z,63.20
2018-06-27T10:05:53.585Z,64.40
2018-06-27T10:13:20.699Z,64.20
2018-06-27T10:15:49.685Z,64.00
2018-06-27T10:18:18.831Z,64.60
2018-06-27T10:20:47.817Z,65.70
2018-06-27T10:23:16.816Z,66.90
2018-06-27T10:25:46.133Z,64.90
2018-06-27T10:28:15.828Z,64.30
2018-06-27T10:30:44.754Z,64.20
2018-06-27T10:33:15.208Z,63.10
2018-06-27T10:35:45.264Z,62.00
2018-06-27T10:38:14.415Z,62.80
2018-06-27T10:40:43.324Z,63.00
2018-06-27T10:45:40.872Z,62.80
2018-06-27T10:48:10.110Z,63.20
2018-06-27T10:50:39.093Z,63.20
2018-06-27T10:53:08.057Z,62.90
2018-06-27T10:55:37.027Z,62.80
2018-06-27T11:00:34.811Z,63.60
2018-06-27T11:05:32.312Z,63.50
2018-06-27T11:08:01.268Z,64.20
2018-06-27T11:10:30.275Z,65.40
2018-06-27T11:12:59.256Z,65.20
2018-06-27T11:17:56.747Z,63.10
2018-06-27T11:20:25.766Z,61.50
2018-06-27T11:22:54.760Z,60.60
2018-06-27T11:25:23.759Z,62.30
2018-06-27T11:27:52.758Z,60.30
2018-06-27T11:30:21.802Z,60.00
2018-06-27T11:32:50.866Z,59.70
2018-06-27T11:35:19.950Z,59.00
2018-06-27T11:37:48.884Z,59.20
2018-06-27T11:40:17.875Z,58.80
2018-06-27T11:42:47.048Z,58.30
2018-06-27T11:45:16.290Z,57.20
2018-06-27T11:47:45.300Z,56.90
2018-06-27T11:50:14.469Z,58.50
2018-06-27T11:52:43.443Z,58.00
2018-06-27T11:57:43.378Z,59.00
2018-06-27T12:00:12.378Z,59.60
2018-06-27T12:02:48.122Z,58.10
2018-06-27T12:05:17.237Z,56.70
2018-06-27T12:07:46.177Z,56.60
2018-06-27T12:10:15.276Z,57.00
2018-06-27T12:12:44.226Z,58.10
2018-06-27T12:15:13.202Z,58.50
2018-06-27T12:17:42.156Z,57.70
2018-06-27T12:20:11.211Z,52.90
2018-06-27T12:22:40.155Z,50.90
2018-06-27T12:27:37.670Z,49.70
2018-06-27T12:30:07.129Z,50.00
2018-06-27T12:35:04.599Z,50.00
2018-06-27T12:40:02.125Z,47.60
2018-06-27T12:42:31.070Z,47.50
2018-06-27T12:45:00.039Z,47.20
2018-06-27T12:49:57.589Z,45.80
2018-06-27T12:52:26.497Z,47.60
2018-06-27T12:55:03.511Z,49.10
2018-06-27T13:02:30.817Z,49.70
2018-06-27T13:05:00.190Z,48.60
2018-06-27T13:09:57.747Z,48.80
2018-06-27T13:12:26.701Z,51.10
2018-06-27T13:14:55.690Z,54.50
2018-06-27T13:17:24.690Z,57.60
2018-06-27T13:19:53.899Z,58.90
2018-06-27T13:22:23.115Z,59.40
2018-06-27T13:24:52.077Z,59.80
2018-06-27T13:27:20.989Z,62.30
2018-06-27T13:29:50.152Z,60.60
2018-06-27T13:32:19.691Z,62.10
2018-06-27T13:34:48.632Z,62.50
2018-06-27T13:37:17.669Z,63.20
2018-06-27T13:39:47.163Z,63.80
2018-06-27T13:42:16.592Z,63.60
2018-06-27T13:44:45.547Z,63.10
2018-06-27T13:47:14.505Z,62.60
2018-06-27T13:49:44.278Z,64.80
2018-06-27T13:52:13.340Z,62.80
2018-06-27T13:54:45.178Z,63.30
2018-06-27T13:57:14.128Z,63.30
2018-06-27T14:02:11.640Z,63.00
2018-06-27T14:04:40.586Z,62.70
2018-06-27T14:07:09.563Z,63.00
2018-06-27T14:09:38.513Z,63.10
2018-06-27T14:12:07.569Z,63.60
2018-06-27T14:14:36.582Z,63.40
2018-06-27T14:22:09.738Z,65.20
2018-06-27T14:24:39.420Z,64.80
2018-06-27T14:29:36.929Z,65.00
2018-06-27T14:32:05.957Z,65.00
2018-06-27T14:34:34.889Z,64.80
2018-06-27T14:37:03.836Z,63.80
2018-06-27T14:39:32.761Z,64.60
2018-06-27T14:42:01.769Z,63.60
2018-06-27T14:44:30.726Z,64.50
2018-06-27T14:46:59.676Z,64.80
2018-06-27T14:49:28.572Z,66.40
2018-06-27T14:51:57.632Z,65.90
2018-06-27T14:54:26.645Z,63.40
2018-06-27T14:56:55.566Z,64.10
2018-06-27T14:59:24.655Z,63.80
2018-06-27T15:01:53.628Z,63.10
2018-06-27T15:04:22.572Z,63.60
2018-06-27T15:09:20.049Z,62.10
2018-06-27T15:14:17.760Z,59.50
2018-06-27T15:16:46.751Z,61.10
2018-06-27T15:19:16.780Z,60.20
2018-06-27T15:21:45.777Z,59.30
2018-06-27T15:24:14.845Z,56.70
2018-06-27T15:26:43.793Z,55.00
2018-06-27T15:29:12.786Z,56.60
2018-06-27T15:31:41.743Z,58.00
2018-06-27T15:34:10.785Z,54.60
2018-06-27T15:36:39.839Z,54.00
2018-06-27T15:39:09.907Z,51.80
2018-06-27T15:41:38.926Z,50.30
2018-06-27T15:44:08.396Z,50.70
2018-06-27T15:46:37.592Z,49.10
2018-06-27T15:49:09.361Z,51.30
2018-06-27T15:51:39.444Z,48.60
2018-06-27T15:54:08.398Z,50.50
2018-06-27T15:56:37.302Z,48.60
2018-06-27T15:59:06.337Z,49.00
2018-06-27T16:04:03.922Z,45.10
2018-06-27T16:09:02.031Z,44.30
2018-06-27T16:11:31.012Z,43.30
2018-06-27T16:13:59.895Z,44.50
2018-06-27T16:18:57.782Z,44.60
2018-06-27T16:26:24.369Z,44.90
2018-06-27T16:28:53.524Z,43.80
2018-06-27T16:36:19.550Z,44.70
2018-06-27T16:38:48.521Z,46.10
2018-06-27T16:41:17.499Z,44.30
2018-06-27T16:43:46.692Z,44.50
2018-06-27T16:48:44.498Z,44.60
2018-06-27T16:51:13.553Z,44.60
2018-06-27T16:53:42.541Z,45.20
2018-06-27T16:56:11.553Z,44.40
2018-06-27T16:58:40.465Z,44.40
2018-06-27T17:01:09.538Z,44.90
2018-06-27T17:08:35.527Z,44.40
2018-06-27T17:11:04.536Z,47.70
2018-06-27T17:13:33.543Z,46.00
2018-06-27T17:16:02.488Z,44.40
2018-06-27T17:18:31.468Z,45.70
2018-06-27T17:21:00.646Z,44.10
2018-06-27T17:23:29.838Z,43.80
2018-06-27T17:25:58.805Z,44.00
2018-06-27T17:28:27.799Z,44.70
2018-06-27T17:33:25.673Z,45.40
2018-06-27T17:35:54.800Z,45.50
2018-06-27T17:40:52.315Z,46.60
2018-06-27T17:43:21.268Z,48.00
2018-06-27T17:45:50.741Z,47.60
2018-06-27T17:48:19.730Z,46.90
2018-06-27T17:53:17.356Z,49.90
2018-06-27T17:55:46.355Z,49.50
2018-06-27T17:58:15.356Z,49.50
2018-06-27T18:00:44.425Z,49.50
2018-06-27T18:03:13.417Z,49.40
2018-06-27T18:05:42.358Z,51.10
2018-06-27T18:08:11.333Z,50.90
2018-06-27T18:10:40.379Z,50.60
2018-06-27T18:13:09.417Z,48.70
2018-06-27T18:15:38.811Z,50.10
2018-06-27T18:18:08.090Z,50.80
2018-06-27T18:20:37.053Z,49.60
2018-06-27T18:23:06.108Z,50.50
2018-06-27T18:25:35.113Z,51.20
2018-06-27T18:28:04.233Z,51.20
2018-06-27T18:30:33.361Z,48.30
2018-06-27T18:33:02.445Z,48.60
2018-06-27T18:38:00.048Z,47.10
2018-06-27T18:40:29.070Z,47.70
2018-06-27T18:42:58.050Z,46.40
2018-06-27T18:45:27.322Z,47.40
2018-06-27T18:47:56.275Z,48.00
2018-06-27T18:50:25.305Z,49.10
2018-06-27T18:52:54.281Z,48.90
2018-06-27T18:55:23.242Z,48.90
2018-06-27T18:57:52.222Z,48.90
2018-06-27T19:00:21.256Z,49.00
2018-06-27T19:02:50.222Z,48.70
2018-06-27T19:05:19.206Z,49.00
2018-06-27T19:10:16.856Z,48.60
2018-06-27T19:12:45.828Z,50.00
2018-06-27T19:15:14.795Z,49.60
2018-06-27T19:20:13.513Z,50.90
2018-06-27T19:22:43.603Z,50.90
2018-06-27T19:27:41.866Z,50.60
2018-06-27T19:30:11.651Z,50.50
2018-06-27T19:32:41.800Z,51.40
2018-06-27T19:37:42.159Z,49.50
2018-06-27T19:42:40.731Z,49.60
2018-06-27T19:47:38.911Z,51.00
2018-06-27T19:50:08.479Z,49.90
2018-06-27T19:52:37.904Z,51.30
2018-06-27T19:55:07.572Z,50.90
2018-06-27T19:57:37.055Z,50.30
2018-06-27T20:00:07.004Z,49.50
2018-06-27T20:02:36.336Z,49.40
2018-06-27T20:05:05.726Z,50.00
2018-06-27T20:07:35.164Z,49.10
2018-06-27T20:10:04.521Z,49.60
2018-06-27T20:12:34.135Z,51.30
2018-06-27T20:15:03.977Z,50.90
2018-06-27T20:17:33.731Z,52.40
2018-06-27T20:20:02.889Z,52.30
2018-06-27T20:22:31.870Z,52.10
2018-06-27T20:25:00.841Z,51.60
2018-06-27T20:27:29.768Z,52.70
2018-06-27T20:29:58.679Z,53.60
2018-06-27T20:32:27.598Z,54.20
2018-06-27T20:34:56.577Z,54.00
2018-06-27T20:37:25.496Z,54.00
2018-06-27T20:39:54.466Z,53.20
2018-06-27T20:44:51.984Z,53.80
2018-06-27T20:47:21.014Z,52.70
2018-06-27T20:49:49.983Z,51.90
2018-06-27T20:52:18.898Z,52.00
2018-06-27T20:54:47.818Z,52.20
2018-06-27T20:57:16.760Z,52.90
2018-06-27T20:59:45.681Z,53.30
2018-06-27T21:04:43.179Z,52.60
2018-06-27T21:07:12.193Z,52.20
2018-06-27T21:09:41.112Z,51.20
2018-06-27T21:12:10.470Z,52.10
2018-06-27T21:14:39.433Z,52.20
2018-06-27T21:17:08.426Z,52.20
2018-06-27T21:19:38.352Z,52.00
2018-06-27T21:22:07.421Z,52.80
2018-06-27T21:27:05.822Z,53.00
2018-06-27T21:29:34.753Z,52.80
2018-06-27T21:32:03.687Z,53.70
2018-06-27T21:34:32.681Z,53.70
2018-06-27T21:37:01.725Z,54.20
2018-06-27T21:39:30.681Z,53.90
2018-06-27T21:44:28.113Z,53.90
2018-06-27T21:46:58.365Z,54.10
2018-06-27T21:51:57.516Z,55.00
2018-06-27T21:54:26.439Z,54.70
2018-06-27T21:56:55.414Z,55.30
2018-06-27T21:59:24.359Z,55.20
2018-06-27T22:04:21.906Z,55.00
2018-06-27T22:06:50.893Z,54.60
2018-06-27T22:09:19.859Z,54.10
2018-06-27T22:11:48.860Z,54.20
2018-06-27T22:14:17.835Z,53.70
2018-06-27T22:16:46.897Z,54.00
2018-06-27T22:19:15.875Z,53.60
2018-06-27T22:21:44.947Z,53.90
2018-06-27T22:24:13.805Z,55.30
2018-06-27T22:26:42.743Z,54.10
2018-06-27T22:29:11.698Z,54.70
2018-06-27T22:31:40.588Z,55.00
2018-06-27T22:34:09.553Z,54.90
2018-06-27T22:36:38.526Z,54.90
2018-06-27T22:44:05.476Z,54.70
2018-06-27T22:46:34.515Z,54.70
2018-06-27T22:49:03.562Z,54.70
2018-06-27T22:51:32.548Z,54.10
2018-06-27T22:54:01.602Z,54.70
2018-06-27T22:56:31.396Z,55.40
2018-06-27T22:59:00.447Z,56.50
2018-06-27T23:01:29.456Z,56.50
2018-06-27T23:03:58.426Z,56.70
2018-06-27T23:06:27.408Z,57.20
2018-06-27T23:08:56.365Z,57.80
2018-06-27T23:11:25.362Z,57.70
2018-06-27T23:13:54.310Z,56.20
2018-06-27T23:16:23.245Z,55.30
2018-06-27T23:18:52.212Z,56.10
2018-06-27T23:21:21.125Z,56.00
2018-06-27T23:23:50.054Z,55.70
2018-06-27T23:26:19.064Z,55.70
2018-06-27T23:28:48.049Z,55.60
2018-06-27T23:31:17.090Z,55.60
2018-06-27T23:33:46.025Z,59.20
2018-06-27T23:36:14.934Z,59.30
2018-06-27T23:38:43.887Z,59.60
2018-06-27T23:41:12.859Z,59.40
2018-06-27T23:43:41.838Z,59.80
2018-06-27T23:46:10.798Z,58.80
2018-06-27T23:48:39.781Z,59.70
2018-06-27T23:51:08.789Z,61.00
2018-06-27T23:53:37.799Z,61.20
2018-06-27T23:58:35.281Z,61.70
